Buoy 51659

sailwx.info

Track history (hours):
 
Tides and Currents Weather Stations Pressure Air Temp Water Temp Dewpoint Dewpoint Depression Visibility Wind Speed Wind Dir Waves Ship Positions

Drifting buoy 51659

Last reported at 2017-Feb-26 19:00 UTC. Time now 2017-Feb-26 21:38 UTC.
Position S 15°08' E 172°23'.

Water temperature 29.1 ° C

Date/timePositionNaut miles runAvg speedWind from/ knotsBaromVisibWave heightAir tempDewpointWater temp
2017-Feb-26 19:00S 15°08' E 172°23'0 0.0 29.1
2017-Feb-26 18:00S 15°08' E 172°23'1 0.6 29.1
2017-Feb-26 17:00S 15°08' E 172°23'2 0.2 29.1
2017-Feb-26 10:00S 15°10' E 172°24'1 0.8 29.3
2017-Feb-26 09:00S 15°10' E 172°23'1 0.8 29.4
2017-Feb-26 08:00S 15°10' E 172°24'1 0.6 29.5
2017-Feb-26 07:00S 15°10' E 172°23'1 0.6 29.6
2017-Feb-26 06:00S 15°10' E 172°23'2 2.1 29.6
2017-Feb-26 05:00S 15°08' E 172°22'0 0.0 29.7
2017-Feb-26 04:00S 15°08' E 172°22'1 0.8 29.9
2017-Feb-26 03:00S 15°08' E 172°22'4 3.6 29.7
2017-Feb-26 02:00S 15°04' E 172°21'0 0.0 29.5
2017-Feb-25 22:00S 15°04' E 172°21'1 0.4 29.2
2017-Feb-25 20:00S 15°04' E 172°22'1 0.6 29.2
2017-Feb-25 19:00S 15°04' E 172°22'1 1.3 29.2
2017-Feb-25 18:00S 15°03' E 172°23'1 1.3 29.1
2017-Feb-25 17:00S 15°02' E 172°24'5 0.9 29.2
2017-Feb-25 11:00S 15°01' E 172°29'1 1.2 28.9
2017-Feb-25 10:00S 15°01' E 172°28'2 2.3 28.9
2017-Feb-25 09:00S 15°01' E 172°31'2 0.9 28.8
2017-Feb-25 07:00S 15°01' E 172°32'1 0.6 29.0
2017-Feb-25 06:00S 15°01' E 172°33'4 1.8 29.1
2017-Feb-25 04:00S 15°02' E 172°37'0 0.0 29.3
2017-Feb-25 03:00S 15°02' E 172°37'1 0.6 29.4
2017-Feb-25 02:00S 15°01' E 172°37'3 0.8 29.6
2017-Feb-24 22:00S 15°04' E 172°39'1 0.6 29.2
2017-Feb-24 21:00S 15°04' E 172°39'2 0.5 29.1
2017-Feb-24 17:00S 15°06' E 172°40'2 0.3 29.1
2017-Feb-24 10:00S 15°08' E 172°40'1 0.6 29.2
2017-Feb-24 09:00S 15°09' E 172°40'2 2.1 29.2
2017-Feb-24 08:00S 15°08' E 172°38'0 0.0 29.2
2017-Feb-24 07:00S 15°08' E 172°38'1 0.6 29.2
2017-Feb-24 06:00S 15°07' E 172°38'1 0.8 29.3
2017-Feb-24 05:00S 15°07' E 172°38'1 1.3 29.3
2017-Feb-24 04:00S 15°05' E 172°38'1 0.3 29.4
2017-Feb-24 02:00S 15°05' E 172°38'5 1.6 29.5
2017-Feb-23 23:00S 15°01' E 172°39'1 0.7 29.3
2017-Feb-23 21:00S 15°00' E 172°40'1 0.6 29.1
2017-Feb-23 20:00S 14°59' E 172°40'1 0.4 29.1
2017-Feb-23 18:00S 14°59' E 172°41'2 1.7 29.1
2017-Feb-23 17:00S 14°58' E 172°42'2 0.9 29.1
2017-Feb-23 15:00S 14°57' E 172°44'0 0.0 29.0
2017-Feb-23 14:00S 14°57' E 172°44'0 0.0 29.1
2017-Feb-23 13:00S 14°57' E 172°44'1 0.7 29.0
2017-Feb-23 11:00S 14°56' E 172°45'2 1.7 29.2
2017-Feb-23 10:00S 14°56' E 172°47'0 0.0 29.2
2017-Feb-23 09:00S 14°56' E 172°47'1 1.3 29.3
2017-Feb-23 08:00S 14°57' E 172°48'1 0.6 29.3
2017-Feb-23 07:00S 14°57' E 172°49'1 1.3 29.4
2017-Feb-23 06:00S 14°58' E 172°50'1 1.3 29.5
2017-Feb-23 05:00S 14°58' E 172°51'0 0.0 29.6
2017-Feb-23 04:00S 14°58' E 172°51'1 1.3 29.6
2017-Feb-23 03:00S 14°59' E 172°52'0 0.0 29.7
2017-Feb-23 02:00S 14°59' E 172°52'5 0.8 29.6
2017-Feb-22 20:00S 15°04' E 172°54'1 0.6 29.0
2017-Feb-22 19:00S 15°04' E 172°54'1 0.6 29.0
2017-Feb-22 18:00S 15°04' E 172°55'1 0.6 29.0
2017-Feb-22 16:00S 15°05' E 172°55'1 1.3 29.1
2017-Feb-22 15:00S 15°06' E 172°56'1 0.8 29.1
2017-Feb-22 14:00S 15°05' E 172°55'0 0.0 29.1
2017-Feb-22 13:00S 15°05' E 172°55'2 0.9 29.1
2017-Feb-22 11:00S 15°07' E 172°56'1 1.2 29.2
2017-Feb-22 10:00S 15°07' E 172°57'1 0.4 29.2
2017-Feb-22 08:00S 15°08' E 172°56'0 0.0 29.2
2017-Feb-22 07:00S 15°08' E 172°56'1 0.4 29.2
2017-Feb-22 04:00S 15°08' E 172°58'1 0.6 29.3
2017-Feb-22 03:00S 15°08' E 172°57'0 0.0 29.3
2017-Feb-22 02:00S 15°08' E 172°57'2 0.6 29.2
2017-Feb-21 22:00S 15°08' E 172°59'2 0.6 29.2
2017-Feb-21 19:00S 15°07' E 173°01'1 0.6 29.1
2017-Feb-21 17:00S 15°07' E 173°02'2 1.7 29.3
2017-Feb-21 16:00S 15°07' E 173°04'0 0.0 29.2
2017-Feb-21 15:00S 15°07' E 173°04'4 0.9 29.3
2017-Feb-21 11:00S 15°10' E 173°06'2 1.7 29.1
2017-Feb-21 10:00S 15°11' E 173°07'3 3.4 29.1
2017-Feb-21 09:00S 15°13' E 173°10'0 0.0 29.1
2017-Feb-21 07:00S 15°13' E 173°10'4 1.9 29.5
2017-Feb-21 05:00S 15°16' E 173°13'1 0.8 29.7
2017-Feb-21 04:00S 15°17' E 173°12'0 0.0 29.7
2017-Feb-21 03:00S 15°17' E 173°12'5 1.0 29.6
2017-Feb-20 22:00S 15°22' E 173°11'3 1.7 29.2
2017-Feb-20 20:00S 15°25' E 173°09'0 0.0 29.2
2017-Feb-20 19:00S 15°25' E 173°09'1 0.6 29.2
2017-Feb-20 18:00S 15°25' E 173°08'2 1.7 29.2
2017-Feb-20 17:00S 15°26' E 173°07'2 1.9 29.2
2017-Feb-20 16:00S 15°28' E 173°07'4 0.8 29.2
2017-Feb-20 11:00S 15°28' E 173°02'0 0.0 29.4
2017-Feb-20 10:00S 15°28' E 173°02'0 0.0 29.4
2017-Feb-20 09:00S 15°28' E 173°02'2 0.9 29.4
2017-Feb-20 07:00S 15°29' E 173°01'1 0.6 29.4
2017-Feb-20 06:00S 15°29' E 173°00'1 1.3 29.5
2017-Feb-20 05:00S 15°29' E 172°59'0 0.0 29.5
2017-Feb-20 04:00S 15°29' E 172°59'0 0.0 29.5
2017-Feb-20 03:00S 15°29' E 172°59'2 0.4 29.5
2017-Feb-19 22:00S 15°29' E 172°57'1 0.8 29.4
2017-Feb-19 21:00S 15°28' E 172°58'1 1.3 29.4
2017-Feb-19 20:00S 15°29' E 172°59'2 0.6 29.3
2017-Feb-19 16:00S 15°29' E 173°01'0 0.0 29.3
2017-Feb-19 15:00S 15°29' E 173°01'4 0.8 29.3
2017-Feb-19 10:00S 15°32' E 173°04'1 1.2 29.4
2017-Feb-19 09:00S 15°32' E 173°05'1 1.2 29.4
2017-Feb-19 08:00S 15°33' E 173°05'0 0.0 29.4
2017-Feb-19 07:00S 15°33' E 173°05'1 1.2 29.4
2017-Feb-19 06:00S 15°34' E 173°05'7 2.4 29.4
2017-Feb-19 03:00S 15°41' E 173°04'1 0.1 29.5
2017-Feb-18 23:00S 15°42' E 173°04'2 1.2 29.4
2017-Feb-18 21:00S 15°44' E 173°04'1 0.8 29.4
2017-Feb-18 20:00S 15°44' E 173°04'2 0.8 29.4
2017-Feb-18 17:00S 15°46' E 173°02'0 0.0 29.4
2017-Feb-18 15:00S 15°46' E 173°02'1 1.3 29.4
2017-Feb-18 14:00S 15°46' E 173°03'5 1.6 29.4
2017-Feb-18 11:00S 15°47' E 172°58'1 1.2 29.5
2017-Feb-18 10:00S 15°47' E 172°57'0 0.0 29.5
2017-Feb-18 09:00S 15°47' E 172°57'2 1.2 29.5
2017-Feb-18 07:00S 15°47' E 172°55'1 0.3 29.5
2017-Feb-18 05:00S 15°47' E 172°55'1 1.2 29.6
2017-Feb-18 04:00S 15°47' E 172°53'0 0.0 29.6
2017-Feb-18 03:00S 15°47' E 172°53'6 0.9 29.6
2017-Feb-17 21:00S 15°44' E 172°49'1 0.7 29.5
2017-Feb-17 19:00S 15°43' E 172°50'1 1.2 29.5
2017-Feb-17 18:00S 15°43' E 172°51'1 0.1 29.5
2017-Feb-17 11:00S 15°44' E 172°51'1 0.8 29.6
2017-Feb-17 10:00S 15°44' E 172°50'0 0.0 29.6
2017-Feb-17 09:00S 15°44' E 172°50'1 0.3 29.6
2017-Feb-17 07:00S 15°44' E 172°50'1 0.8 29.6
2017-Feb-17 06:00S 15°45' E 172°50'1 0.6 29.6
2017-Feb-17 05:00S 15°45' E 172°50'1 1.2 29.6
2017-Feb-17 04:00S 15°46' E 172°50'0 0.0 29.6
2017-Feb-17 03:00S 15°46' E 172°50'4 4.2 29.6
2017-Feb-17 02:00S 15°47' E 172°46'1 0.3 29.6
2017-Feb-16 22:00S 15°49' E 172°46'2 1.8 29.6
2017-Feb-16 21:00S 15°48' E 172°44'2 0.9 29.6
2017-Feb-16 19:00S 15°48' E 172°42'   29.6
Track history (hours):
 
Tides and Currents Weather Stations Pressure Air Temp Water Temp Dewpoint Dewpoint Depression Visibility Wind Speed Wind Dir Waves Ship Positions

Drifting buoy 51659

Last reported at 2017-Feb-26 19:00 UTC. Time now 2017-Feb-26 21:38 UTC.
Position S 15°08' E 172°23'.

Water temperature 29.1 ° C

Date/timePositionNaut miles runAvg speedWind from/ knotsBaromVisibWave heightAir tempDewpointWater temp
2017-Feb-26 19:00S 15°08' E 172°23'0 0.0 29.1
2017-Feb-26 18:00S 15°08' E 172°23'1 0.6 29.1
2017-Feb-26 17:00S 15°08' E 172°23'2 0.2 29.1
2017-Feb-26 10:00S 15°10' E 172°24'1 0.8 29.3
2017-Feb-26 09:00S 15°10' E 172°23'1 0.8 29.4
2017-Feb-26 08:00S 15°10' E 172°24'1 0.6 29.5
2017-Feb-26 07:00S 15°10' E 172°23'1 0.6 29.6
2017-Feb-26 06:00S 15°10' E 172°23'2 2.1 29.6
2017-Feb-26 05:00S 15°08' E 172°22'0 0.0 29.7
2017-Feb-26 04:00S 15°08' E 172°22'1 0.8 29.9
2017-Feb-26 03:00S 15°08' E 172°22'4 3.6 29.7
2017-Feb-26 02:00S 15°04' E 172°21'0 0.0 29.5
2017-Feb-25 22:00S 15°04' E 172°21'1 0.4 29.2
2017-Feb-25 20:00S 15°04' E 172°22'1 0.6 29.2
2017-Feb-25 19:00S 15°04' E 172°22'1 1.3 29.2
2017-Feb-25 18:00S 15°03' E 172°23'1 1.3 29.1
2017-Feb-25 17:00S 15°02' E 172°24'5 0.9 29.2
2017-Feb-25 11:00S 15°01' E 172°29'1 1.2 28.9
2017-Feb-25 10:00S 15°01' E 172°28'2 2.3 28.9
2017-Feb-25 09:00S 15°01' E 172°31'2 0.9 28.8
2017-Feb-25 07:00S 15°01' E 172°32'1 0.6 29.0
2017-Feb-25 06:00S 15°01' E 172°33'4 1.8 29.1
2017-Feb-25 04:00S 15°02' E 172°37'0 0.0 29.3
2017-Feb-25 03:00S 15°02' E 172°37'1 0.6 29.4
2017-Feb-25 02:00S 15°01' E 172°37'3 0.8 29.6
2017-Feb-24 22:00S 15°04' E 172°39'1 0.6 29.2
2017-Feb-24 21:00S 15°04' E 172°39'2 0.5 29.1
2017-Feb-24 17:00S 15°06' E 172°40'2 0.3 29.1
2017-Feb-24 10:00S 15°08' E 172°40'1 0.6 29.2
2017-Feb-24 09:00S 15°09' E 172°40'2 2.1 29.2
2017-Feb-24 08:00S 15°08' E 172°38'0 0.0 29.2
2017-Feb-24 07:00S 15°08' E 172°38'1 0.6 29.2
2017-Feb-24 06:00S 15°07' E 172°38'1 0.8 29.3
2017-Feb-24 05:00S 15°07' E 172°38'1 1.3 29.3
2017-Feb-24 04:00S 15°05' E 172°38'1 0.3 29.4
2017-Feb-24 02:00S 15°05' E 172°38'5 1.6 29.5
2017-Feb-23 23:00S 15°01' E 172°39'1 0.7 29.3
2017-Feb-23 21:00S 15°00' E 172°40'1 0.6 29.1
2017-Feb-23 20:00S 14°59' E 172°40'1 0.4 29.1
2017-Feb-23 18:00S 14°59' E 172°41'2 1.7 29.1
2017-Feb-23 17:00S 14°58' E 172°42'2 0.9 29.1
2017-Feb-23 15:00S 14°57' E 172°44'0 0.0 29.0
2017-Feb-23 14:00S 14°57' E 172°44'0 0.0 29.1
2017-Feb-23 13:00S 14°57' E 172°44'1 0.7 29.0
2017-Feb-23 11:00S 14°56' E 172°45'2 1.7 29.2
2017-Feb-23 10:00S 14°56' E 172°47'0 0.0 29.2
2017-Feb-23 09:00S 14°56' E 172°47'1 1.3 29.3
2017-Feb-23 08:00S 14°57' E 172°48'1 0.6 29.3
2017-Feb-23 07:00S 14°57' E 172°49'1 1.3 29.4
2017-Feb-23 06:00S 14°58' E 172°50'1 1.3 29.5
2017-Feb-23 05:00S 14°58' E 172°51'0 0.0 29.6
2017-Feb-23 04:00S 14°58' E 172°51'1 1.3 29.6
2017-Feb-23 03:00S 14°59' E 172°52'0 0.0 29.7
2017-Feb-23 02:00S 14°59' E 172°52'5 0.8 29.6
2017-Feb-22 20:00S 15°04' E 172°54'1 0.6 29.0
2017-Feb-22 19:00S 15°04' E 172°54'1 0.6 29.0
2017-Feb-22 18:00S 15°04' E 172°55'1 0.6 29.0
2017-Feb-22 16:00S 15°05' E 172°55'1 1.3 29.1
2017-Feb-22 15:00S 15°06' E 172°56'1 0.8 29.1
2017-Feb-22 14:00S 15°05' E 172°55'0 0.0 29.1
2017-Feb-22 13:00S 15°05' E 172°55'2 0.9 29.1
2017-Feb-22 11:00S 15°07' E 172°56'1 1.2 29.2
2017-Feb-22 10:00S 15°07' E 172°57'1 0.4 29.2
2017-Feb-22 08:00S 15°08' E 172°56'0 0.0 29.2
2017-Feb-22 07:00S 15°08' E 172°56'1 0.4 29.2
2017-Feb-22 04:00S 15°08' E 172°58'1 0.6 29.3
2017-Feb-22 03:00S 15°08' E 172°57'0 0.0 29.3
2017-Feb-22 02:00S 15°08' E 172°57'2 0.6 29.2
2017-Feb-21 22:00S 15°08' E 172°59'2 0.6 29.2
2017-Feb-21 19:00S 15°07' E 173°01'1 0.6 29.1
2017-Feb-21 17:00S 15°07' E 173°02'2 1.7 29.3
2017-Feb-21 16:00S 15°07' E 173°04'0 0.0 29.2
2017-Feb-21 15:00S 15°07' E 173°04'4 0.9 29.3
2017-Feb-21 11:00S 15°10' E 173°06'2 1.7 29.1
2017-Feb-21 10:00S 15°11' E 173°07'3 3.4 29.1
2017-Feb-21 09:00S 15°13' E 173°10'0 0.0 29.1
2017-Feb-21 07:00S 15°13' E 173°10'4 1.9 29.5
2017-Feb-21 05:00S 15°16' E 173°13'1 0.8 29.7
2017-Feb-21 04:00S 15°17' E 173°12'0 0.0 29.7
2017-Feb-21 03:00S 15°17' E 173°12'5 1.0 29.6
2017-Feb-20 22:00S 15°22' E 173°11'3 1.7 29.2
2017-Feb-20 20:00S 15°25' E 173°09'0 0.0 29.2
2017-Feb-20 19:00S 15°25' E 173°09'1 0.6 29.2
2017-Feb-20 18:00S 15°25' E 173°08'2 1.7 29.2
2017-Feb-20 17:00S 15°26' E 173°07'2 1.9 29.2
2017-Feb-20 16:00S 15°28' E 173°07'4 0.8 29.2
2017-Feb-20 11:00S 15°28' E 173°02'0 0.0 29.4
2017-Feb-20 10:00S 15°28' E 173°02'0 0.0 29.4
2017-Feb-20 09:00S 15°28' E 173°02'2 0.9 29.4
2017-Feb-20 07:00S 15°29' E 173°01'1 0.6 29.4
2017-Feb-20 06:00S 15°29' E 173°00'1 1.3 29.5
2017-Feb-20 05:00S 15°29' E 172°59'0 0.0 29.5
2017-Feb-20 04:00S 15°29' E 172°59'0 0.0 29.5
2017-Feb-20 03:00S 15°29' E 172°59'2 0.4 29.5
2017-Feb-19 22:00S 15°29' E 172°57'1 0.8 29.4
2017-Feb-19 21:00S 15°28' E 172°58'1 1.3 29.4
2017-Feb-19 20:00S 15°29' E 172°59'2 0.6 29.3
2017-Feb-19 16:00S 15°29' E 173°01'0 0.0 29.3
2017-Feb-19 15:00S 15°29' E 173°01'4 0.8 29.3
2017-Feb-19 10:00S 15°32' E 173°04'1 1.2 29.4
2017-Feb-19 09:00S 15°32' E 173°05'1 1.2 29.4
2017-Feb-19 08:00S 15°33' E 173°05'0 0.0 29.4
2017-Feb-19 07:00S 15°33' E 173°05'1 1.2 29.4
2017-Feb-19 06:00S 15°34' E 173°05'7 2.4 29.4
2017-Feb-19 03:00S 15°41' E 173°04'1 0.1 29.5
2017-Feb-18 23:00S 15°42' E 173°04'2 1.2 29.4
2017-Feb-18 21:00S 15°44' E 173°04'1 0.8 29.4
2017-Feb-18 20:00S 15°44' E 173°04'2 0.8 29.4
2017-Feb-18 17:00S 15°46' E 173°02'0 0.0 29.4
2017-Feb-18 15:00S 15°46' E 173°02'1 1.3 29.4
2017-Feb-18 14:00S 15°46' E 173°03'5 1.6 29.4
2017-Feb-18 11:00S 15°47' E 172°58'1 1.2 29.5
2017-Feb-18 10:00S 15°47' E 172°57'0 0.0 29.5
2017-Feb-18 09:00S 15°47' E 172°57'2 1.2 29.5
2017-Feb-18 07:00S 15°47' E 172°55'1 0.3 29.5
2017-Feb-18 05:00S 15°47' E 172°55'1 1.2 29.6
2017-Feb-18 04:00S 15°47' E 172°53'0 0.0 29.6
2017-Feb-18 03:00S 15°47' E 172°53'6 0.9 29.6
2017-Feb-17 21:00S 15°44' E 172°49'1 0.7 29.5
2017-Feb-17 19:00S 15°43' E 172°50'1 1.2 29.5
2017-Feb-17 18:00S 15°43' E 172°51'1 0.1 29.5
2017-Feb-17 11:00S 15°44' E 172°51'1 0.8 29.6
2017-Feb-17 10:00S 15°44' E 172°50'0 0.0 29.6
2017-Feb-17 09:00S 15°44' E 172°50'1 0.3 29.6
2017-Feb-17 07:00S 15°44' E 172°50'1 0.8 29.6
2017-Feb-17 06:00S 15°45' E 172°50'1 0.6 29.6
2017-Feb-17 05:00S 15°45' E 172°50'1 1.2 29.6
2017-Feb-17 04:00S 15°46' E 172°50'0 0.0 29.6
2017-Feb-17 03:00S 15°46' E 172°50'4 4.2 29.6
2017-Feb-17 02:00S 15°47' E 172°46'1 0.3 29.6
2017-Feb-16 22:00S 15°49' E 172°46'2 1.8 29.6
2017-Feb-16 21:00S 15°48' E 172°44'2 0.9 29.6
2017-Feb-16 19:00S 15°48' E 172°42'   29.6

Dump ship's entire track history